Time;durP1;ratioP1;P1;durP2;ratioP2;P2;SDS_P1;SDS_P2;PMS_P1;PMS_P2;Temp;Humidity;BMP_temperature;BMP_pressure;BME280_temperature;BME280_humidity;BME280_pressure;Samples;Min_cycle;Max_cycle;Signal;HPM_P1;HPM_P2
2022/11/15 00:01:02;;;;;;;10.57;6.07;;;;;;;10.71;61.79;100764.38;5132323;27;20071;-62
2022/11/15 00:03:29;;;;;;;9.85;6.28;;;;;;;10.72;62.01;100771.41;5142201;27;20051;-62
2022/11/15 00:06:03;;;;;;;10.57;6.68;;;;;;;10.72;62.17;100770.56;5141010;27;20070;-63
2022/11/15 00:08:31;;;;;;;10.38;6.18;;;;;;;10.71;62.21;100767.06;5141532;27;20053;-63
2022/11/15 00:11:02;;;;;;;9.27;6.90;;;;;;;10.68;62.21;100764.81;5132051;27;20157;-62
2022/11/15 00:13:30;;;;;;;14.70;7.75;;;;;;;10.73;62.28;100766.84;5141131;27;20047;-62
2022/11/15 00:16:00;;;;;;;10.23;6.13;;;;;;;10.71;62.39;100766.25;5135368;27;20134;-62
2022/11/15 00:18:28;;;;;;;10.30;6.93;;;;;;;10.72;62.38;100765.19;5142578;27;20070;-61
2022/11/15 00:20:56;;;;;;;12.48;5.72;;;;;;;10.73;62.12;100767.66;5137526;27;20051;-61
2022/11/15 00:23:23;;;;;;;10.63;6.22;;;;;;;10.73;62.41;100762.28;5135010;27;20110;-61
2022/11/15 00:25:57;;;;;;;11.30;6.38;;;;;;;10.73;62.30;100758.78;5133159;27;20051;-62
2022/11/15 00:28:26;;;;;;;9.05;6.50;;;;;;;10.72;62.46;100763.34;5139926;27;20073;-62
2022/11/15 00:30:54;;;;;;;7.80;5.65;;;;;;;10.73;62.48;100761.47;5140730;27;20043;-61
2022/11/15 00:33:22;;;;;;;10.27;5.95;;;;;;;10.74;62.34;100763.09;5142466;27;20039;-62
2022/11/15 00:35:50;;;;;;;9.10;5.68;;;;;;;10.74;62.50;100752.34;5129355;28;20104;-62
2022/11/15 00:38:17;;;;;;;10.55;6.40;;;;;;;10.74;62.79;100753.19;5139341;28;20458;-62
2022/11/15 00:40:45;;;;;;;8.85;6.18;;;;;;;10.75;62.51;100759.38;5141730;28;20070;-62
2022/11/15 00:43:13;;;;;;;10.52;5.57;;;;;;;10.74;62.36;100755.84;5133600;28;20129;-61
2022/11/15 00:45:42;;;;;;;11.60;5.90;;;;;;;10.75;62.54;100757.50;5132584;28;20051;-61
2022/11/15 00:48:10;;;;;;;9.60;5.88;;;;;;;10.75;62.66;100752.13;5136823;28;20051;-62
2022/11/15 00:50:38;;;;;;;8.40;6.28;;;;;;;10.75;62.70;100746.75;5134106;28;20111;-62
2022/11/15 00:53:06;;;;;;;8.93;5.55;;;;;;;10.75;62.58;100749.44;5139108;28;20054;-61
2022/11/15 00:55:33;;;;;;;10.95;6.57;;;;;;;10.76;62.74;100747.56;5135023;28;20496;-62
2022/11/15 00:58:01;;;;;;;9.05;5.47;;;;;;;10.74;62.70;100739.72;5140516;28;20050;-62
2022/11/15 01:00:29;;;;;;;12.95;5.72;;;;;;;10.71;62.75;100734.81;5138752;28;20167;-62
2022/11/15 01:02:58;;;;;;;8.10;5.78;;;;;;;10.75;62.86;100741.38;5139619;28;20043;-62
2022/11/15 01:05:26;;;;;;;8.77;5.65;;;;;;;10.77;62.93;100751.91;5144471;27;20078;-61
2022/11/15 01:07:54;;;;;;;8.77;5.53;;;;;;;10.75;62.77;100744.06;5140564;28;20047;-62
2022/11/15 01:10:22;;;;;;;11.05;5.78;;;;;;;10.77;62.83;100741.97;5135685;28;20065;-62
2022/11/15 01:12:50;;;;;;;10.18;5.93;;;;;;;10.77;62.84;100739.28;5141092;28;20090;-62
2022/11/15 01:15:18;;;;;;;8.90;5.32;;;;;;;10.79;62.98;100733.69;5126428;28;20050;-61
2022/11/15 01:17:46;;;;;;;8.65;5.80;;;;;;;10.78;63.03;100740.09;5140761;28;20057;-61
2022/11/15 01:20:15;;;;;;;10.57;6.13;;;;;;;10.80;63.03;100735.31;5134204;28;20043;-61
2022/11/15 01:22:42;;;;;;;8.35;5.82;;;;;;;10.80;63.10;100729.94;5134337;28;20039;-61
2022/11/15 01:25:10;;;;;;;7.38;5.13;;;;;;;10.79;63.11;100733.69;5140231;28;20540;-62
2022/11/15 01:27:38;;;;;;;9.52;5.13;;;;;;;10.79;63.19;100725.63;5126859;27;20050;-61
2022/11/15 01:30:08;;;;;;;8.02;5.20;;;;;;;10.80;63.19;100724.56;5136494;28;20115;-62
2022/11/15 01:32:35;;;;;;;8.25;5.38;;;;;;;10.80;63.24;100726.44;5138331;28;20072;-62
2022/11/15 01:35:03;;;;;;;9.45;5.43;;;;;;;10.80;63.39;100716.50;5142271;28;20043;-62
2022/11/15 01:37:32;;;;;;;7.10;4.90;;;;;;;10.81;63.31;100717.31;5134504;27;20047;-62
2022/11/15 01:40:00;;;;;;;8.32;5.25;;;;;;;10.81;63.50;100720.84;5141240;27;20057;-62
2022/11/15 01:42:28;;;;;;;8.48;5.38;;;;;;;10.80;63.38;100719.19;5138288;27;20039;-61
2022/11/15 01:44:55;;;;;;;8.80;5.45;;;;;;;10.80;63.73;100715.69;5140098;27;20133;-62
2022/11/15 01:47:27;;;;;;;9.02;4.97;;;;;;;10.80;63.45;100713.81;5143234;27;20061;-62
2022/11/15 01:50:00;;;;;;;8.20;5.30;;;;;;;10.81;63.52;100711.94;5132127;27;20047;-61
2022/11/15 01:52:31;;;;;;;10.32;5.40;;;;;;;10.80;63.96;100711.13;5142006;27;20504;-62
2022/11/15 01:55:07;;;;;;;7.50;5.47;;;;;;;10.80;63.78;100713.81;5140894;27;20055;-62
2022/11/15 01:57:35;;;;;;;9.15;4.63;;;;;;;10.81;63.87;100714.63;5142922;27;20081;-62
2022/11/15 02:00:05;;;;;;;8.10;5.15;;;;;;;10.78;63.99;100707.84;5144771;27;20047;-63
2022/11/15 02:02:35;;;;;;;8.75;5.25;;;;;;;10.82;63.99;100711.72;5142236;27;20047;-62
2022/11/15 02:05:03;;;;;;;9.95;5.18;;;;;;;10.84;64.28;100708.81;5141476;27;20051;-61
2022/11/15 02:07:32;;;;;;;8.05;5.10;;;;;;;10.85;64.20;100713.13;5137606;27;20043;-62
2022/11/15 02:10:07;;;;;;;9.48;5.60;;;;;;;10.83;64.42;100699.91;5142455;27;20046;-62
2022/11/15 02:12:35;;;;;;;7.32;4.20;;;;;;;10.84;64.29;100700.75;5140231;27;20130;-62
2022/11/15 02:15:05;;;;;;;10.60;5.22;;;;;;;10.85;64.41;100708.56;5137440;27;20420;-62
2022/11/15 02:17:49;;;;;;;7.35;4.80;;;;;;;10.82;64.49;100695.59;5142514;27;20063;-62
2022/11/15 02:20:58;;;;;;;9.27;5.25;;;;;;;10.86;64.67;100695.97;5139934;27;20551;-62
2022/11/15 02:23:56;;;;;;;9.20;5.03;;;;;;;10.87;64.62;100694.91;5141160;27;20047;-62
2022/11/15 02:26:57;;;;;;;7.80;4.30;;;;;;;10.86;64.95;100698.66;5143380;27;20061;-62
2022/11/15 02:29:42;;;;;;;8.38;5.03;;;;;;;10.87;64.65;100701.09;5143959;27;20400;-62
2022/11/15 02:32:19;;;;;;;9.02;5.45;;;;;;;10.88;64.82;100699.25;5141394;27;20039;-62
2022/11/15 02:34:55;;;;;;;7.80;4.82;;;;;;;10.89;64.87;100692.81;5144107;27;20043;-62
2022/11/15 02:37:32;;;;;;;6.72;4.72;;;;;;;10.89;65.13;100693.63;5144031;27;20047;-62
2022/11/15 02:40:06;;;;;;;;;;;;;;;10.90;64.72;100689.91;5140558;27;20044;-62
2022/11/15 02:45:28;;;;;;;10.02;5.30;;;;;;;10.94;65.36;100680.34;5140472;27;20061;-62
2022/11/15 02:48:01;;;;;;;9.55;5.45;;;;;;;10.93;65.22;100694.81;5143849;27;20062;-61
2022/11/15 02:50:32;;;;;;;11.85;5.68;;;;;;;10.94;65.44;100682.19;5140071;27;20057;-61
2022/11/15 02:53:00;;;;;;;8.40;5.35;;;;;;;10.93;65.44;100684.06;5134271;27;20043;-62
2022/11/15 02:55:30;;;;;;;10.60;5.15;;;;;;;10.93;65.12;100676.00;5133343;27;20059;-62
2022/11/15 02:58:15;;;;;;;7.43;5.57;;;;;;;10.94;65.55;100672.25;5135234;27;20050;-61
2022/11/15 03:00:48;;;;;;;8.13;5.13;;;;;;;10.94;65.51;100674.13;5141251;27;20054;-62
2022/11/15 03:03:41;;;;;;;7.50;4.93;;;;;;;10.95;65.46;100662.31;5140774;27;20055;-62
2022/11/15 03:06:22;;;;;;;6.72;4.63;;;;;;;10.94;65.37;100661.50;5130835;27;20069;-62
2022/11/15 03:09:02;;;;;;;7.13;4.60;;;;;;;10.96;65.42;100650.53;5130326;27;20342;-61
2022/11/15 03:11:33;;;;;;;7.22;4.75;;;;;;;10.96;65.43;100647.84;5142461;27;20070;-62
2022/11/15 03:14:07;;;;;;;9.20;5.25;;;;;;;10.97;65.74;100649.47;5140840;27;20039;-62
2022/11/15 03:16:38;;;;;;;6.72;4.65;;;;;;;10.98;65.79;100653.81;5139325;27;20492;-62
2022/11/15 03:19:12;;;;;;;8.10;5.00;;;;;;;10.97;65.71;100647.59;5129787;27;20051;-62
2022/11/15 03:21:41;;;;;;;8.98;5.00;;;;;;;10.98;66.09;100651.94;5141375;27;20049;-61
2022/11/15 03:24:10;;;;;;;8.43;5.05;;;;;;;10.98;65.74;100651.13;5140427;27;20467;-62
2022/11/15 03:26:41;;;;;;;7.00;5.38;;;;;;;10.99;65.81;100655.44;5124902;27;20054;-62
2022/11/15 03:29:15;;;;;;;10.80;4.97;;;;;;;11.00;65.78;100651.72;5136106;27;20043;-62
2022/11/15 03:31:48;;;;;;;12.55;5.47;;;;;;;10.99;65.88;100663.50;5142460;27;20138;-62
2022/11/15 03:34:27;;;;;;;8.25;4.95;;;;;;;11.01;65.94;100661.41;5143494;27;20454;-62
2022/11/15 03:36:55;;;;;;;8.63;4.72;;;;;;;11.00;65.88;100657.09;5140530;27;20135;-61
2022/11/15 03:39:24;;;;;;;8.98;4.60;;;;;;;10.98;65.82;100651.94;5143315;27;20047;-62
2022/11/15 03:42:03;;;;;;;7.03;5.03;;;;;;;11.03;65.83;100654.75;5141603;27;20062;-61
2022/11/15 03:44:41;;;;;;;7.28;4.43;;;;;;;11.03;65.83;100662.81;5135110;27;20349;-62
2022/11/15 03:47:13;;;;;;;10.68;4.53;;;;;;;11.04;66.02;100660.94;5138729;27;20047;-62
2022/11/15 03:49:47;;;;;;;11.13;4.88;;;;;;;11.04;66.36;100664.47;5138160;27;20132;-61
2022/11/15 03:52:18;;;;;;;9.63;5.15;;;;;;;11.04;66.01;100669.03;5140922;27;20151;-62
2022/11/15 03:54:51;;;;;;;8.45;4.93;;;;;;;11.05;65.90;100662.59;5140221;27;20035;-62
2022/11/15 03:57:19;;;;;;;9.25;4.90;;;;;;;11.05;66.14;100659.91;5131060;27;20047;-62
2022/11/15 03:59:46;;;;;;;11.85;5.18;;;;;;;11.05;66.16;100652.66;5142115;27;20160;-62
2022/11/15 04:02:15;;;;;;;8.80;5.00;;;;;;;11.06;66.23;100646.22;5139660;27;20051;-62
2022/11/15 04:04:44;;;;;;;9.15;4.80;;;;;;;11.07;66.13;100649.75;5140399;27;20146;-63
2022/11/15 04:07:12;;;;;;;11.57;5.13;;;;;;;11.06;66.24;100659.69;5132695;27;20043;-62
2022/11/15 04:12:30;;;;;;;9.00;4.90;;;;;;;11.07;66.16;100660.50;5139654;27;20061;-61
2022/11/15 04:15:08;;;;;;;7.63;4.72;;;;;;;11.07;66.34;100647.88;5136897;27;20376;-61
2022/11/15 04:17:38;;;;;;;9.98;5.72;;;;;;;11.08;66.29;100644.13;5133215;27;20042;-62
2022/11/15 04:25:44;;;;;;;7.47;4.93;;;;;;;11.11;66.21;100659.00;5141016;27;20051;-61
2022/11/15 04:28:12;;;;;;;7.95;4.53;;;;;;;11.11;66.17;100650.09;5142184;27;20085;-62
2022/11/15 04:30:40;;;;;;;6.65;4.03;;;;;;;11.11;66.27;100656.28;5139811;27;20043;-63
2022/11/15 04:33:07;;;;;;;8.43;5.18;;;;;;;11.12;66.30;100655.25;5138189;27;20047;-60
2022/11/15 04:35:37;;;;;;;8.15;4.85;;;;;;;11.13;66.46;100661.44;5137666;27;20054;-62
2022/11/15 04:38:05;;;;;;;7.78;5.10;;;;;;;11.12;66.79;100657.13;5137376;27;20051;-62
2022/11/15 04:40:33;;;;;;;7.65;5.20;;;;;;;11.12;66.56;100654.44;5141227;27;20049;-61
2022/11/15 04:43:01;;;;;;;11.40;6.13;;;;;;;11.13;66.39;100656.06;5139649;28;20050;-63
2022/11/15 04:45:31;;;;;;;6.57;4.72;;;;;;;11.14;66.38;100660.41;5138584;28;20047;-62
2022/11/15 04:47:58;;;;;;;8.20;4.88;;;;;;;11.14;66.62;100663.09;5141065;28;20051;-62
2022/11/15 04:50:26;;;;;;;7.47;5.05;;;;;;;11.15;66.55;100659.34;5129647;28;20517;-62
2022/11/15 04:52:55;;;;;;;8.77;5.40;;;;;;;11.14;66.51;100657.72;5139121;28;20488;-62
2022/11/15 04:55:23;;;;;;;7.47;4.78;;;;;;;11.15;66.62;100660.16;5141217;28;20058;-62
2022/11/15 04:57:58;;;;;;;8.52;5.25;;;;;;;11.15;66.58;100652.09;5139766;28;20058;-62
2022/11/15 05:00:27;;;;;;;7.22;4.68;;;;;;;11.15;66.48;100652.09;5139679;28;20273;-62
2022/11/15 05:05:40;;;;;;;8.15;4.95;;;;;;;11.16;66.62;100653.75;5139708;28;20331;-62
2022/11/15 05:08:09;;;;;;;6.88;4.65;;;;;;;11.17;66.58;100650.00;5139155;28;20053;-62
2022/11/15 05:10:37;;;;;;;8.95;5.47;;;;;;;11.17;66.59;100650.00;5142059;28;20043;-62
2022/11/15 05:13:05;;;;;;;8.38;5.32;;;;;;;11.17;66.74;100646.50;5136747;28;20051;-62
2022/11/15 05:15:32;;;;;;;9.27;5.45;;;;;;;11.17;67.08;100649.19;5134463;27;20058;-61
2022/11/15 05:18:00;;;;;;;8.45;5.57;;;;;;;11.17;66.75;100649.19;5141071;27;20106;-63
2022/11/15 05:20:28;;;;;;;12.13;5.07;;;;;;;11.18;66.78;100646.25;5142709;27;20058;-61
2022/11/15 05:22:56;;;;;;;10.38;5.50;;;;;;;11.20;66.83;100648.72;5142443;27;20047;-62
2022/11/15 05:25:26;;;;;;;8.82;4.63;;;;;;;11.20;67.10;100643.34;5141362;27;21568;-62
2022/11/15 05:27:53;;;;;;;8.20;5.22;;;;;;;11.19;66.92;100639.00;5145406;27;20070;-62
2022/11/15 05:30:21;;;;;;;9.43;5.18;;;;;;;11.19;66.91;100634.44;5143491;27;20053;-61
2022/11/15 05:32:50;;;;;;;10.07;4.57;;;;;;;11.16;67.01;100626.03;5142703;27;20043;-61
2022/11/15 05:35:23;;;;;;;8.00;5.13;;;;;;;11.19;66.85;100637.13;5142169;27;20043;-60
2022/11/15 05:37:51;;;;;;;10.50;5.55;;;;;;;11.19;66.76;100626.38;5141990;27;20038;-62
2022/11/15 05:40:19;;;;;;;10.40;4.60;;;;;;;11.20;66.92;100632.56;5138548;27;20039;-61
2022/11/15 05:42:48;;;;;;;9.55;5.00;;;;;;;11.20;66.96;100632.56;5157282;27;20051;-61
2022/11/15 05:45:17;;;;;;;7.40;4.75;;;;;;;11.20;66.44;100632.56;5132803;27;20050;-62
2022/11/15 05:47:56;;;;;;;7.10;4.28;;;;;;;11.19;66.81;100636.31;5143055;27;20278;-62
2022/11/15 05:50:24;;;;;;;7.18;4.38;;;;;;;11.22;66.99;100646.63;5143530;27;20051;-61
2022/11/15 05:52:52;;;;;;;6.13;4.32;;;;;;;11.22;66.92;100642.06;5144280;27;20043;-62
2022/11/15 05:55:20;;;;;;;8.75;4.57;;;;;;;11.25;67.15;100648.84;5138357;27;20043;-62
2022/11/15 05:57:49;;;;;;;7.18;4.45;;;;;;;11.24;67.16;100648.03;5131456;27;20047;-62
2022/11/15 06:00:18;;;;;;;8.35;4.70;;;;;;;11.25;67.17;100651.53;5136434;27;20067;-62
2022/11/15 06:02:45;;;;;;;8.20;5.57;;;;;;;11.29;67.16;100652.72;5139586;27;20066;-62
2022/11/15 06:05:13;;;;;;;8.75;5.25;;;;;;;11.29;67.17;100653.53;5138125;27;20051;-63
2022/11/15 06:07:41;;;;;;;8.63;4.68;;;;;;;11.31;67.59;100659.50;5140501;27;20053;-62
2022/11/15 06:10:09;;;;;;;8.43;5.55;;;;;;;11.32;67.24;100663.00;5140786;27;20061;-60
2022/11/15 06:12:37;;;;;;;7.63;4.28;;;;;;;11.30;67.32;100660.56;5141276;27;20049;-61
2022/11/15 06:15:07;;;;;;;6.95;4.97;;;;;;;11.32;67.34;100658.44;5142190;27;20066;-62
2022/11/15 06:17:35;;;;;;;8.75;5.35;;;;;;;11.32;67.49;100650.38;5141793;27;20400;-62
2022/11/15 06:20:03;;;;;;;6.85;4.57;;;;;;;11.34;67.60;100650.16;5139579;27;20043;-61
2022/11/15 06:22:31;;;;;;;10.48;5.75;;;;;;;11.34;67.67;100661.72;5142772;27;20043;-63
2022/11/15 06:24:59;;;;;;;10.02;5.25;;;;;;;11.34;67.48;100664.41;5140573;27;20059;-61
2022/11/15 06:27:32;;;;;;;11.00;5.75;;;;;;;11.34;70.35;100663.59;5123594;27;20193;-65
2022/11/15 06:29:59;;;;;;;8.95;5.82;;;;;;;11.33;68.75;100662.78;5142679;27;20051;-64
2022/11/15 06:32:29;;;;;;;9.30;5.43;;;;;;;11.35;68.75;100670.63;5134896;27;20050;-64
2022/11/15 06:34:57;;;;;;;9.93;4.88;;;;;;;11.33;68.89;100670.03;5140140;27;20074;-65
2022/11/15 06:37:25;;;;;;;14.88;5.60;;;;;;;11.33;68.79;100670.03;5144886;27;20046;-65
2022/11/15 06:39:53;;;;;;;11.50;5.40;;;;;;;11.32;68.59;100671.09;4785304;27;9999872;-64
2022/11/15 06:42:20;;;;;;;8.48;4.95;;;;;;;11.30;68.60;100667.81;5137008;27;20423;-64
2022/11/15 06:44:48;;;;;;;8.10;4.93;;;;;;;11.30;68.41;100670.50;5120788;27;20536;-64
2022/11/15 06:47:16;;;;;;;8.85;5.22;;;;;;;11.30;68.25;100667.81;5119239;28;20505;-64
2022/11/15 06:49:45;;;;;;;9.45;5.03;;;;;;;11.29;68.19;100669.69;5137135;27;20404;-64
2022/11/15 06:52:12;;;;;;;9.55;4.50;;;;;;;11.31;68.04;100680.22;5139348;27;20082;-65
2022/11/15 06:54:40;;;;;;;12.50;4.72;;;;;;;11.30;68.06;100671.31;5140915;27;20407;-65
2022/11/15 06:57:08;;;;;;;10.27;4.53;;;;;;;11.32;68.10;100685.34;5138881;27;20038;-66
2022/11/15 06:59:35;;;;;;;6.95;4.88;;;;;;;11.34;68.18;100687.81;5138798;27;20051;-64
2022/11/15 07:02:12;;;;;;;9.60;5.00;;;;;;;11.33;68.08;100687.00;5128946;27;20345;-65
2022/11/15 07:04:40;;;;;;;7.45;4.30;;;;;;;11.34;68.03;100694.00;5137806;27;20039;-63
2022/11/15 07:07:09;;;;;;;7.22;4.43;;;;;;;11.33;67.96;100697.75;5139089;27;20515;-64
2022/11/15 07:09:37;;;;;;;8.98;4.80;;;;;;;11.32;67.98;100690.75;5137405;27;20063;-64
2022/11/15 07:12:05;;;;;;;6.35;4.00;;;;;;;11.31;68.00;100694.47;5131125;27;20050;-63
2022/11/15 07:14:34;;;;;;;7.30;4.30;;;;;;;11.32;67.91;100692.59;5143567;27;20053;-66
2022/11/15 07:17:04;;;;;;;7.80;4.78;;;;;;;11.32;67.83;100700.69;5131959;27;20051;-65
2022/11/15 07:19:32;;;;;;;7.07;4.60;;;;;;;11.33;67.92;100700.44;5132497;27;20044;-65
2022/11/15 07:22:00;;;;;;;7.53;4.70;;;;;;;11.34;67.99;100712.03;5137404;27;20065;-65
2022/11/15 07:24:29;;;;;;;8.57;4.18;;;;;;;11.34;68.13;100710.16;5136218;27;20039;-65
2022/11/15 07:26:57;;;;;;;8.15;4.50;;;;;;;11.35;68.17;100708.28;5143866;27;20146;-65
2022/11/15 07:29:24;;;;;;;8.15;4.60;;;;;;;11.36;68.32;100707.25;5143514;27;20351;-65
2022/11/15 07:31:52;;;;;;;8.23;4.80;;;;;;;11.34;68.25;100710.16;5130558;27;20070;-65
2022/11/15 07:34:20;;;;;;;6.57;4.40;;;;;;;11.34;68.27;100703.97;5141317;27;20619;-63
2022/11/15 07:36:47;;;;;;;8.55;4.40;;;;;;;11.34;68.25;100703.97;5138514;27;20046;-64
2022/11/15 07:39:15;;;;;;;9.65;4.45;;;;;;;11.36;68.29;100712.63;5127805;27;20110;-64
2022/11/15 07:41:44;;;;;;;9.35;4.57;;;;;;;11.36;68.42;100702.69;5142099;27;20043;-64
2022/11/15 07:44:12;;;;;;;5.88;3.72;;;;;;;11.37;68.44;100700.81;5143597;27;20047;-63
2022/11/15 07:46:40;;;;;;;8.55;4.75;;;;;;;11.38;68.26;100697.06;5126797;27;20055;-64
2022/11/15 07:49:07;;;;;;;5.82;3.67;;;;;;;11.37;68.26;100692.75;5127930;27;21743;-63
2022/11/15 07:51:35;;;;;;;7.22;3.92;;;;;;;11.37;68.14;100693.56;5142134;27;20043;-64
2022/11/15 07:54:03;;;;;;;7.40;3.95;;;;;;;11.37;68.18;100690.03;5143674;27;20070;-64
2022/11/15 07:56:31;;;;;;;6.75;3.75;;;;;;;11.36;68.13;100691.91;5127004;27;20122;-64
2022/11/15 07:59:00;;;;;;;6.93;4.20;;;;;;;11.37;68.14;100698.94;5124280;27;20039;-64
2022/11/15 08:01:28;;;;;;;5.82;3.67;;;;;;;11.38;68.20;100702.44;5123075;28;20434;-63
2022/11/15 08:03:56;;;;;;;6.30;3.78;;;;;;;11.38;68.32;100705.97;5126460;27;20069;-64
2022/11/15 08:06:24;;;;;;;5.60;3.58;;;;;;;11.37;68.06;100701.63;5142034;27;20047;-65
2022/11/15 08:08:51;;;;;;;6.60;3.63;;;;;;;11.38;67.97;100705.13;4783297;27;9999816;-65
2022/11/15 08:11:19;;;;;;;6.97;4.55;;;;;;;11.38;68.20;100711.34;5136165;27;20059;-65
2022/11/15 08:13:47;;;;;;;7.57;4.18;;;;;;;11.40;68.17;100713.81;5133462;27;20483;-65
2022/11/15 08:16:16;;;;;;;6.38;3.45;;;;;;;11.41;68.00;100710.06;5133808;27;20048;-65
2022/11/15 08:18:43;;;;;;;7.22;3.75;;;;;;;11.38;68.20;100715.91;5118813;28;20547;-65
2022/11/15 08:21:20;;;;;;;6.95;3.58;;;;;;;11.40;68.38;100714.63;5134966;27;20062;-65
2022/11/15 08:23:48;;;;;;;5.65;3.65;;;;;;;11.41;68.42;100707.38;5137816;27;20057;-65
2022/11/15 08:26:16;;;;;;;6.72;3.35;;;;;;;11.40;68.41;100706.56;5139272;27;20062;-65
2022/11/15 08:28:44;;;;;;;6.78;3.70;;;;;;;11.41;68.43;100707.38;5123762;27;20044;-65
2022/11/15 08:31:18;;;;;;;4.88;3.20;;;;;;;11.44;68.49;100700.72;5134932;27;20050;-65
2022/11/15 08:33:45;;;;;;;5.00;3.63;;;;;;;11.45;68.47;100694.28;5136612;27;20130;-65
2022/11/15 08:36:15;;;;;;;5.43;3.22;;;;;;;11.44;68.77;100687.25;5129915;27;20039;-65
2022/11/15 08:38:43;;;;;;;8.35;3.50;;;;;;;11.43;68.58;100694.50;5134571;27;20046;-65
2022/11/15 08:41:14;;;;;;;9.38;3.65;;;;;;;11.41;68.56;100689.34;5138986;27;20110;-64
2022/11/15 08:43:42;;;;;;;6.32;3.08;;;;;;;11.46;68.74;100688.66;5137075;28;20062;-65
2022/11/15 08:46:13;;;;;;;5.68;3.22;;;;;;;11.47;68.54;100681.41;5136064;28;20051;-64
2022/11/15 08:48:42;;;;;;;7.28;3.33;;;;;;;11.50;68.49;100678.25;5133766;27;20039;-64
2022/11/15 08:51:10;;;;;;;5.07;2.88;;;;;;;11.61;68.13;100670.19;5141165;27;20510;-63
2022/11/15 08:53:38;;;;;;;7.88;3.92;;;;;;;11.81;67.78;100666.38;5139804;27;20048;-64
2022/11/15 08:56:08;;;;;;;6.65;3.22;;;;;;;12.00;66.97;100663.31;5135459;27;20047;-63
2022/11/15 08:58:36;;;;;;;6.88;3.10;;;;;;;12.30;65.86;100662.31;5144983;27;20057;-63
2022/11/15 09:01:05;;;;;;;7.47;3.10;;;;;;;12.42;65.65;100664.97;5144495;27;20055;-64
2022/11/15 09:03:32;;;;;;;4.47;2.60;;;;;;;12.66;65.27;100666.53;5141959;27;20051;-63
2022/11/15 09:06:02;;;;;;;3.97;2.95;;;;;;;12.81;64.28;100657.94;5149720;27;20153;-63
2022/11/15 09:08:31;;;;;;;6.18;3.47;;;;;;;12.92;64.35;100657.06;5143073;27;20043;-63
2022/11/15 09:11:16;;;;;;;5.93;2.33;;;;;;;13.25;63.22;100646.34;5126468;27;20047;-66
2022/11/15 09:13:44;;;;;;;6.00;2.85;;;;;;;13.22;63.20;100643.31;5138968;27;20425;-64
2022/11/15 09:16:12;;;;;;;6.47;2.67;;;;;;;13.22;63.21;100640.63;5143073;27;20053;-64
2022/11/15 09:18:40;;;;;;;6.40;2.60;;;;;;;13.24;62.64;100635.81;5136839;27;20044;-64
2022/11/15 09:21:10;;;;;;;3.90;2.08;;;;;;;13.33;62.97;100632.44;5136758;27;20484;-64
2022/11/15 09:23:38;;;;;;;4.90;2.47;;;;;;;13.38;62.36;100633.59;5139079;27;20055;-65
2022/11/15 09:26:06;;;;;;;4.30;2.30;;;;;;;13.33;62.75;100637.84;5143073;27;20055;-64
2022/11/15 09:28:35;;;;;;;7.32;2.70;;;;;;;13.31;63.24;100631.06;5138979;27;20051;-64
2022/11/15 09:31:05;;;;;;;9.95;2.10;;;;;;;13.19;63.55;100635.72;5123275;28;20053;-64
2022/11/15 09:33:33;;;;;;;2.85;1.90;;;;;;;13.22;64.27;100627.13;5127862;27;20071;-64
2022/11/15 09:36:03;;;;;;;5.32;1.92;;;;;;;13.08;63.90;100623.06;5141888;27;20130;-64
2022/11/15 09:38:32;;;;;;;3.22;1.98;;;;;;;12.93;64.76;100620.94;5142981;27;20051;-64
2022/11/15 09:41:49;;;;;;;3.88;1.90;;;;;;;12.78;65.49;100613.38;5143882;27;20055;-63
2022/11/15 09:44:38;;;;;;;4.03;2.25;;;;;;;12.66;65.64;100626.91;5068188;28;20048;-64
2022/11/15 09:47:35;;;;;;;2.45;1.65;;;;;;;12.66;65.57;100628.78;5074125;28;20055;-64
2022/11/15 09:50:11;;;;;;;4.47;1.52;;;;;;;12.60;65.96;100621.66;5076611;28;20048;-64
2022/11/15 09:52:42;;;;;;;2.93;1.50;;;;;;;12.55;66.09;100622.41;5079070;28;20045;-64
2022/11/15 09:55:21;;;;;;;7.93;1.80;;;;;;;12.52;66.53;100616.66;5060973;28;20311;-64
2022/11/15 09:57:55;;;;;;;2.75;1.45;;;;;;;12.49;66.81;100614.44;5077873;28;20508;-64
2022/11/15 10:00:29;;;;;;;1.42;1.08;;;;;;;12.53;66.71;100613.72;5078058;28;20059;-64
2022/11/15 10:03:15;;;;;;;2.17;1.10;;;;;;;12.61;66.35;100616.03;5070454;28;20055;-64
2022/11/15 10:05:46;;;;;;;5.85;1.98;;;;;;;12.48;65.92;100619.03;5062777;28;20335;-65
2022/11/15 10:08:26;;;;;;;3.33;1.40;;;;;;;12.44;66.52;100620.56;5080670;28;20044;-64
2022/11/15 10:10:58;;;;;;;3.33;1.58;;;;;;;12.38;66.53;100622.34;5072729;28;20083;-64
2022/11/15 10:13:49;;;;;;;3.88;1.38;;;;;;;12.47;66.53;100622.78;5073335;28;20052;-66
2022/11/15 10:16:34;;;;;;;2.20;1.35;;;;;;;12.48;65.76;100616.31;5077390;28;20072;-64
2022/11/15 10:19:13;;;;;;;2.25;1.20;;;;;;;12.55;66.17;100616.19;5076627;28;20040;-65
2022/11/15 10:21:50;;;;;;;5.20;2.03;;;;;;;12.54;65.74;100611.84;5126405;27;20057;-65
2022/11/15 10:24:21;;;;;;;3.53;1.30;;;;;;;12.53;66.07;100611.03;5139655;27;20182;-65
2022/11/15 10:26:51;;;;;;;3.47;1.15;;;;;;;12.41;66.06;100604.03;5144939;27;20039;-65
2022/11/15 10:29:21;;;;;;;2.22;1.13;;;;;;;12.35;66.82;100601.25;5141364;27;20197;-65
2022/11/15 10:31:54;;;;;;;3.65;1.27;;;;;;;12.31;66.50;100605.47;5145205;27;20050;-65
2022/11/15 10:34:23;;;;;;;5.40;1.30;;;;;;;12.28;66.80;100597.06;4783494;27;9999761;-63
2022/11/15 10:36:56;;;;;;;3.15;1.30;;;;;;;12.32;66.72;100599.03;5142002;27;20039;-64
2022/11/15 10:39:25;;;;;;;2.28;0.90;;;;;;;12.27;66.74;100596.25;5138939;27;20055;-64
2022/11/15 10:41:54;;;;;;;4.45;1.27;;;;;;;12.24;66.79;100585.13;5140734;27;20523;-64
2022/11/15 10:44:25;;;;;;;2.13;1.25;;;;;;;12.37;66.82;100577.56;5142014;27;20051;-64
2022/11/15 10:47:23;;;;;;;4.35;1.60;;;;;;;12.35;66.41;100568.91;5128514;27;20130;-64
2022/11/15 10:49:58;;;;;;;5.10;1.63;;;;;;;12.34;66.43;100567.28;5136116;27;20146;-65
2022/11/15 10:52:27;;;;;;;2.67;1.17;;;;;;;12.33;66.55;100570.22;5142564;27;20464;-65
2022/11/15 10:55:02;;;;;;;4.28;1.08;;;;;;;12.34;67.14;100561.88;5127838;27;20047;-64
2022/11/15 10:57:34;;;;;;;4.90;1.10;;;;;;;12.30;66.33;100558.03;5140859;27;20047;-65
2022/11/15 11:00:05;;;;;;;5.45;1.20;;;;;;;12.29;66.54;100559.09;5130665;27;20047;-64
2022/11/15 11:02:36;;;;;;;4.90;1.38;;;;;;;12.28;66.96;100546.69;5141184;27;20518;-64
2022/11/15 11:05:06;;;;;;;4.55;1.15;;;;;;;12.28;66.84;100553.94;5129988;27;20054;-64
2022/11/15 11:07:36;;;;;;;6.63;1.67;;;;;;;12.32;67.36;100555.91;5133033;27;20043;-64
2022/11/15 11:10:17;;;;;;;3.92;1.35;;;;;;;12.35;66.89;100554.63;5127941;27;20522;-65
2022/11/15 11:13:24;;;;;;;4.35;2.33;;;;;;;12.33;66.84;100536.00;5136438;27;20047;-64
2022/11/15 11:16:00;;;;;;;4.60;1.15;;;;;;;12.32;66.69;100531.66;5138673;27;20051;-64
2022/11/15 11:18:34;;;;;;;3.40;1.30;;;;;;;12.38;66.90;100525.31;5135690;27;20039;-64
2022/11/15 11:21:09;;;;;;;5.07;1.23;;;;;;;12.38;66.55;100519.09;5131852;27;20077;-64
2022/11/15 11:23:47;;;;;;;1.75;1.05;;;;;;;12.51;66.58;100512.59;5136991;27;20047;-64
2022/11/15 11:26:36;;;;;;;6.35;1.15;;;;;;;12.45;66.03;100509.00;5148478;27;20057;-64
2022/11/15 11:29:31;;;;;;;3.50;1.52;;;;;;;12.42;66.43;100503.28;5160366;27;20051;-64
2022/11/15 11:32:06;;;;;;;3.80;1.60;;;;;;;12.41;66.32;100493.56;5134684;27;20051;-63
2022/11/15 11:34:50;;;;;;;2.03;1.08;;;;;;;12.40;66.39;100490.03;5135536;27;20054;-63
2022/11/15 11:37:24;;;;;;;2.25;1.25;;;;;;;12.54;66.70;100482.47;5128690;27;20035;-63
2022/11/15 11:40:04;;;;;;;3.28;1.27;;;;;;;12.51;66.42;100474.84;5124522;28;20047;-64
2022/11/15 11:42:45;;;;;;;4.07;1.30;;;;;;;12.50;66.50;100478.63;5124389;28;20039;-64
2022/11/15 11:45:25;;;;;;;2.10;1.10;;;;;;;12.47;66.57;100463.75;5140383;27;20054;-64
2022/11/15 11:48:13;;;;;;;3.20;1.38;;;;;;;12.39;66.46;100450.66;5136111;27;20049;-64
2022/11/15 11:50:43;;;;;;;5.53;1.55;;;;;;;12.41;66.34;100448.56;5137839;27;20523;-64
2022/11/15 11:53:14;;;;;;;5.57;1.50;;;;;;;12.55;67.47;100449.88;5137209;27;20124;-64
2022/11/15 11:55:47;;;;;;;5.65;1.45;;;;;;;12.53;66.71;100445.78;5143877;27;20043;-64
2022/11/15 11:58:18;;;;;;;4.15;1.30;;;;;;;12.54;66.43;100450.13;5141357;27;20031;-63